createdAt,value
2019-02-27T00:00:33.610Z,48.90
2019-02-27T00:03:02.314Z,48.90
2019-02-27T00:05:31.082Z,49.10
2019-02-27T00:07:59.801Z,49.40
2019-02-27T00:10:28.560Z,49.90
2019-02-27T00:12:57.555Z,50.00
2019-02-27T00:15:26.049Z,50.00
2019-02-27T00:17:55.127Z,50.10
2019-02-27T00:20:23.794Z,50.20
2019-02-27T00:22:52.426Z,50.20
2019-02-27T00:25:20.877Z,50.10
2019-02-27T00:27:49.978Z,50.10
2019-02-27T00:30:18.682Z,50.10
2019-02-27T00:32:51.043Z,50.50
2019-02-27T00:35:17.498Z,50.60
2019-02-27T00:37:46.250Z,50.70
2019-02-27T00:40:14.974Z,50.70
2019-02-27T00:42:43.379Z,51.10
2019-02-27T00:45:12.302Z,51.10
2019-02-27T00:47:41.017Z,51.30
2019-02-27T00:50:10.332Z,51.30
2019-02-27T00:52:38.794Z,51.50
2019-02-27T00:55:08.878Z,51.70
2019-02-27T00:57:37.863Z,51.70
2019-02-27T01:00:09.383Z,51.80
2019-02-27T01:02:37.791Z,51.90
2019-02-27T01:05:09.174Z,52.00
2019-02-27T01:07:38.062Z,52.30
2019-02-27T01:10:11.944Z,52.30
2019-02-27T01:12:39.776Z,52.30
2019-02-27T01:15:13.218Z,52.50
2019-02-27T01:17:41.907Z,52.60
2019-02-27T01:20:14.793Z,52.80
2019-02-27T01:22:43.320Z,53.00
2019-02-27T01:25:12.576Z,53.20
2019-02-27T01:27:40.989Z,53.40
2019-02-27T01:30:17.146Z,53.60
2019-02-27T01:32:45.552Z,53.90
2019-02-27T01:35:17.593Z,54.10
2019-02-27T01:37:44.910Z,54.30
2019-02-27T01:40:18.031Z,54.40
2019-02-27T01:42:45.254Z,54.40
2019-02-27T01:45:20.781Z,54.80
2019-02-27T01:47:46.410Z,55.20
2019-02-27T01:50:33.102Z,55.50
2019-02-27T01:53:01.901Z,55.40
2019-02-27T01:55:30.770Z,55.40
2019-02-27T01:57:59.662Z,55.60
2019-02-27T02:00:28.142Z,55.70
2019-02-27T02:02:57.590Z,55.70
2019-02-27T02:05:27.460Z,55.70
2019-02-27T02:07:56.472Z,55.70
2019-02-27T02:10:27.993Z,55.80
2019-02-27T02:13:14.928Z,55.90
2019-02-27T02:15:55.515Z,56.10
2019-02-27T02:18:45.778Z,56.30
2019-02-27T02:21:36.779Z,56.30
2019-02-27T02:24:34.098Z,56.40
2019-02-27T02:27:25.257Z,56.70
2019-02-27T02:30:15.860Z,56.80
2019-02-27T02:32:56.541Z,56.90
2019-02-27T02:35:43.248Z,57.10
2019-02-27T02:38:26.486Z,57.20
2019-02-27T02:41:08.245Z,57.40
2019-02-27T02:43:56.823Z,58.00
2019-02-27T02:46:34.176Z,57.70
2019-02-27T02:49:22.691Z,57.80
2019-02-27T02:52:04.568Z,57.80
2019-02-27T02:54:45.299Z,57.90
2019-02-27T02:57:38.139Z,58.00
2019-02-27T03:00:42.378Z,58.00
2019-02-27T03:03:39.895Z,58.10
2019-02-27T03:06:34.585Z,58.30
2019-02-27T03:09:33.239Z,58.50
2019-02-27T03:12:04.780Z,58.70
2019-02-27T03:14:42.184Z,58.90
2019-02-27T03:17:32.049Z,59.40
2019-02-27T03:20:26.438Z,58.90
2019-02-27T03:23:15.712Z,58.80
2019-02-27T03:26:02.882Z,58.90
2019-02-27T03:28:43.392Z,59.00
2019-02-27T03:31:27.061Z,59.40
2019-02-27T03:34:17.877Z,59.40
2019-02-27T03:37:01.513Z,59.50
2019-02-27T03:39:35.890Z,59.60
2019-02-27T03:42:19.937Z,59.50
2019-02-27T03:44:56.194Z,59.60
2019-02-27T03:47:30.449Z,59.70
2019-02-27T03:50:01.956Z,59.70
2019-02-27T03:53:03.913Z,59.90
2019-02-27T03:55:59.539Z,60.00
2019-02-27T03:58:52.475Z,59.90
2019-02-27T04:01:30.585Z,60.20
2019-02-27T04:04:21.529Z,60.60
2019-02-27T04:07:10.783Z,60.80
2019-02-27T04:09:39.386Z,61.00
2019-02-27T04:12:07.792Z,61.10
2019-02-27T04:14:40.101Z,61.30
2019-02-27T04:17:07.656Z,61.10
2019-02-27T04:19:39.220Z,61.10
2019-02-27T04:22:06.610Z,61.00
2019-02-27T04:24:35.056Z,61.00
2019-02-27T04:27:03.827Z,61.10
2019-02-27T04:29:32.625Z,61.00
2019-02-27T04:32:01.034Z,60.90
2019-02-27T04:34:32.986Z,61.10
2019-02-27T04:37:20.488Z,61.00
2019-02-27T04:39:49.650Z,61.00
2019-02-27T04:42:18.051Z,61.20
2019-02-27T04:44:46.486Z,61.40
2019-02-27T04:47:14.895Z,61.60
2019-02-27T04:49:43.339Z,61.40
2019-02-27T04:52:12.498Z,61.40
2019-02-27T04:54:41.648Z,61.40
2019-02-27T04:57:10.721Z,61.50
2019-02-27T04:59:39.373Z,61.60
2019-02-27T05:02:07.811Z,61.60
2019-02-27T05:04:36.730Z,62.00
2019-02-27T05:07:05.145Z,62.20
2019-02-27T05:09:34.026Z,62.20
2019-02-27T05:12:03.429Z,62.00
2019-02-27T05:14:31.915Z,62.10
2019-02-27T05:17:00.353Z,62.20
2019-02-27T05:19:29.041Z,62.30
2019-02-27T05:21:57.551Z,62.30
2019-02-27T05:24:26.323Z,62.40
2019-02-27T05:26:55.121Z,62.50
2019-02-27T05:29:23.550Z,62.60
2019-02-27T05:31:53.334Z,62.60
2019-02-27T05:34:22.708Z,62.60
2019-02-27T05:36:51.492Z,62.70
2019-02-27T05:39:19.921Z,62.70
2019-02-27T05:41:48.655Z,62.70
2019-02-27T05:44:21.334Z,62.80
2019-02-27T05:46:47.968Z,62.70
2019-02-27T05:49:16.386Z,63.00
2019-02-27T05:51:44.822Z,63.10
2019-02-27T05:54:13.222Z,63.10
2019-02-27T05:56:41.995Z,63.30
2019-02-27T05:59:10.410Z,63.20
2019-02-27T06:01:39.356Z,63.10
2019-02-27T06:04:07.765Z,63.10
2019-02-27T06:06:36.534Z,63.30
2019-02-27T06:09:10.347Z,63.30
2019-02-27T06:11:38.273Z,63.30
2019-02-27T06:14:07.318Z,63.50
2019-02-27T06:16:37.536Z,63.50
2019-02-27T06:19:06.561Z,63.60
2019-02-27T06:21:35.019Z,63.70
2019-02-27T06:24:03.437Z,63.90
2019-02-27T06:26:32.506Z,64.10
2019-02-27T06:29:01.758Z,64.40
2019-02-27T06:31:30.464Z,64.50
2019-02-27T06:33:59.097Z,64.70
2019-02-27T06:36:27.958Z,64.80
2019-02-27T06:39:00.096Z,65.00
2019-02-27T06:41:26.938Z,65.10
2019-02-27T06:43:55.394Z,65.20
2019-02-27T06:46:24.153Z,65.40
2019-02-27T06:48:52.983Z,65.60
2019-02-27T06:51:21.391Z,65.70
2019-02-27T06:53:50.151Z,65.70
2019-02-27T06:56:18.650Z,65.90
2019-02-27T06:58:47.515Z,66.10
2019-02-27T07:01:17.240Z,66.20
2019-02-27T07:03:46.036Z,66.30
2019-02-27T07:06:14.717Z,66.40
2019-02-27T07:08:43.491Z,66.50
2019-02-27T07:11:11.913Z,66.80
2019-02-27T07:13:40.654Z,67.00
2019-02-27T07:16:09.353Z,67.00
2019-02-27T07:18:41.482Z,67.00
2019-02-27T07:21:08.011Z,67.00
2019-02-27T07:23:36.742Z,67.10
2019-02-27T07:26:05.425Z,67.30
2019-02-27T07:28:33.990Z,67.50
2019-02-27T07:31:02.457Z,67.60
2019-02-27T07:33:30.889Z,68.00
2019-02-27T07:36:03.319Z,67.90
2019-02-27T07:38:29.769Z,67.80
2019-02-27T07:40:58.673Z,68.00
2019-02-27T07:43:27.443Z,68.30
2019-02-27T07:45:55.848Z,68.40
2019-02-27T07:48:24.318Z,68.30
2019-02-27T07:50:52.739Z,68.10
2019-02-27T07:53:21.178Z,68.10
2019-02-27T07:55:49.602Z,67.70
2019-02-27T07:58:18.034Z,67.60
2019-02-27T08:00:47.139Z,66.80
2019-02-27T08:03:17.416Z,67.20
2019-02-27T08:05:46.438Z,67.80
2019-02-27T08:08:15.118Z,67.30
2019-02-27T08:10:45.295Z,66.40
2019-02-27T08:13:15.776Z,65.50
2019-02-27T08:15:44.213Z,66.00
2019-02-27T08:18:12.798Z,66.30
2019-02-27T08:20:41.654Z,66.50
2019-02-27T08:23:10.395Z,66.30
2019-02-27T08:25:38.842Z,65.10
2019-02-27T08:28:07.270Z,65.10
2019-02-27T08:30:35.825Z,64.30
2019-02-27T08:33:08.241Z,64.00
2019-02-27T08:35:34.626Z,62.60
2019-02-27T08:38:03.343Z,61.80
2019-02-27T08:40:31.801Z,62.40
2019-02-27T08:43:00.495Z,61.00
2019-02-27T08:45:28.937Z,60.20
2019-02-27T08:47:57.672Z,60.80
2019-02-27T08:50:26.291Z,60.00
2019-02-27T08:52:55.219Z,59.60
2019-02-27T08:55:23.671Z,59.70
2019-02-27T08:57:55.806Z,57.40
2019-02-27T09:00:30.959Z,57.00
2019-02-27T09:03:02.501Z,56.60
2019-02-27T09:05:29.862Z,55.90
2019-02-27T09:07:58.273Z,54.60
2019-02-27T09:10:30.385Z,53.80
2019-02-27T09:13:05.405Z,54.30
2019-02-27T09:15:29.398Z,53.20
2019-02-27T09:17:59.247Z,53.80
2019-02-27T09:20:28.307Z,53.40
2019-02-27T09:22:56.755Z,54.20
2019-02-27T09:25:25.210Z,52.50
2019-02-27T09:27:53.669Z,52.60
2019-02-27T09:30:29.328Z,52.90
2019-02-27T09:32:58.350Z,53.80
2019-02-27T09:35:27.198Z,54.40
2019-02-27T09:37:55.596Z,52.90
2019-02-27T09:40:29.675Z,51.40
2019-02-27T09:42:58.483Z,49.80
2019-02-27T09:45:31.854Z,49.20
2019-02-27T09:48:00.802Z,50.20
2019-02-27T09:50:38.431Z,49.50
2019-02-27T09:53:07.410Z,49.00
2019-02-27T09:55:36.221Z,49.20
2019-02-27T09:58:10.033Z,48.30
2019-02-27T10:00:38.881Z,49.30
2019-02-27T10:03:07.784Z,48.50
2019-02-27T10:05:37.435Z,47.70
2019-02-27T10:08:07.776Z,48.60
2019-02-27T10:10:36.419Z,46.60
2019-02-27T10:13:05.220Z,47.60
2019-02-27T10:15:34.496Z,46.20
2019-02-27T10:18:03.377Z,43.70
2019-02-27T10:20:36.812Z,43.30
2019-02-27T10:23:02.701Z,43.50
2019-02-27T10:25:31.478Z,43.20
2019-02-27T10:28:03.293Z,44.10
2019-02-27T10:30:30.492Z,43.00
2019-02-27T10:32:59.290Z,42.10
2019-02-27T10:35:29.515Z,42.80
2019-02-27T10:37:58.812Z,42.30
2019-02-27T10:40:28.014Z,40.80
2019-02-27T10:42:57.163Z,40.40
2019-02-27T10:45:25.670Z,40.60
2019-02-27T10:47:54.586Z,40.30
2019-02-27T10:50:23.243Z,41.60
2019-02-27T10:52:51.830Z,42.20
2019-02-27T10:55:21.803Z,38.20
2019-02-27T10:57:50.274Z,37.60
2019-02-27T11:00:32.978Z,36.70
2019-02-27T11:03:02.191Z,34.40
2019-02-27T11:05:36.461Z,32.50
2019-02-27T11:08:05.463Z,32.70
2019-02-27T11:10:33.882Z,32.30
2019-02-27T11:13:05.643Z,31.40
2019-02-27T11:15:32.455Z,31.30
2019-02-27T11:18:04.218Z,32.30
2019-02-27T11:20:31.337Z,31.60
2019-02-27T11:22:59.777Z,32.00
2019-02-27T11:25:32.919Z,31.40
2019-02-27T11:28:01.445Z,32.70
2019-02-27T11:30:37.760Z,31.80
2019-02-27T11:33:06.526Z,31.70
2019-02-27T11:35:35.537Z,33.30
2019-02-27T11:38:04.832Z,31.60
2019-02-27T11:40:33.229Z,30.80
2019-02-27T11:43:06.274Z,32.00
2019-02-27T11:45:32.474Z,31.10
2019-02-27T11:48:00.998Z,33.30
2019-02-27T11:50:29.407Z,31.80
2019-02-27T11:53:01.748Z,30.60
2019-02-27T11:55:28.718Z,29.80
2019-02-27T11:57:57.179Z,29.80
2019-02-27T12:00:30.586Z,29.70
2019-02-27T12:02:59.864Z,31.20
2019-02-27T12:05:33.681Z,30.30
2019-02-27T12:07:59.638Z,31.70
2019-02-27T12:10:31.319Z,32.30
2019-02-27T12:13:01.299Z,30.80
2019-02-27T12:15:30.798Z,30.90
2019-02-27T12:18:00.452Z,30.10
2019-02-27T12:20:33.936Z,30.50
2019-02-27T12:23:02.334Z,30.90
2019-02-27T12:25:32.417Z,30.70
2019-02-27T12:28:01.818Z,31.00
2019-02-27T12:30:31.599Z,31.30
2019-02-27T12:33:00.372Z,30.50
2019-02-27T12:35:34.455Z,30.70
2019-02-27T12:38:06.819Z,30.20
2019-02-27T12:40:33.290Z,31.20
2019-02-27T12:43:01.720Z,31.00
2019-02-27T12:45:30.931Z,30.60
2019-02-27T12:47:59.577Z,29.90
2019-02-27T12:50:31.117Z,30.70
2019-02-27T12:52:59.789Z,30.80
2019-02-27T12:55:29.216Z,29.70
2019-02-27T12:57:57.736Z,29.30
2019-02-27T13:00:34.552Z,29.60
2019-02-27T13:03:08.118Z,29.60
2019-02-27T13:05:33.980Z,30.00
2019-02-27T13:08:02.554Z,30.50
2019-02-27T13:10:34.159Z,29.10
2019-02-27T13:13:01.524Z,29.50
2019-02-27T13:15:33.237Z,28.80
2019-02-27T13:18:02.010Z,28.70
2019-02-27T13:20:32.154Z,29.60
2019-02-27T13:23:04.064Z,29.60
2019-02-27T13:25:30.837Z,29.90
2019-02-27T13:27:59.610Z,29.40
2019-02-27T13:30:29.108Z,29.00
2019-02-27T13:33:00.698Z,29.00
2019-02-27T13:35:28.963Z,29.80
2019-02-27T13:37:57.777Z,29.20
2019-02-27T13:40:28.813Z,27.90
2019-02-27T13:42:57.563Z,28.20
2019-02-27T13:45:27.767Z,28.30
2019-02-27T13:47:56.417Z,28.40
2019-02-27T13:50:26.875Z,28.50
2019-02-27T13:52:55.414Z,28.50
2019-02-27T13:55:24.116Z,28.20
2019-02-27T13:57:52.586Z,27.90
2019-02-27T14:00:25.770Z,29.00
2019-02-27T14:02:54.420Z,28.60
2019-02-27T14:05:23.128Z,27.50
2019-02-27T14:07:57.083Z,27.90
2019-02-27T14:10:25.194Z,27.50
2019-02-27T14:12:53.899Z,27.10
2019-02-27T14:15:26.756Z,27.20
2019-02-27T14:17:53.582Z,27.40
2019-02-27T14:20:26.994Z,27.20
2019-02-27T14:22:54.117Z,27.60
2019-02-27T14:25:31.070Z,26.70
2019-02-27T14:27:58.274Z,27.90
2019-02-27T14:30:35.523Z,26.70
2019-02-27T14:33:03.131Z,26.60
2019-02-27T14:35:35.261Z,27.10
2019-02-27T14:38:01.715Z,27.30
2019-02-27T14:40:30.226Z,26.30
2019-02-27T14:42:58.992Z,26.00
2019-02-27T14:45:27.527Z,26.00
2019-02-27T14:47:56.248Z,26.10
2019-02-27T14:50:25.479Z,25.30
2019-02-27T14:52:53.904Z,25.50
2019-02-27T14:55:22.995Z,25.50
2019-02-27T14:57:51.619Z,25.70
2019-02-27T15:00:25.871Z,26.00
2019-02-27T15:02:55.685Z,26.30
2019-02-27T15:05:24.290Z,26.10
2019-02-27T15:07:54.633Z,25.80
2019-02-27T15:10:24.389Z,25.60
2019-02-27T15:12:55.029Z,26.20
2019-02-27T15:15:26.600Z,25.60
2019-02-27T15:17:55.449Z,25.20
2019-02-27T15:20:25.970Z,25.40
2019-02-27T15:22:54.446Z,25.80
2019-02-27T15:25:23.735Z,25.80
2019-02-27T15:27:52.302Z,25.60
2019-02-27T15:30:26.493Z,25.50
2019-02-27T15:32:55.012Z,25.60
2019-02-27T15:35:23.493Z,26.20
2019-02-27T15:37:52.501Z,25.80
2019-02-27T15:40:23.175Z,25.70
2019-02-27T15:42:52.173Z,25.80
2019-02-27T15:45:22.405Z,25.80
2019-02-27T15:47:51.247Z,26.00
2019-02-27T15:50:25.373Z,26.80
2019-02-27T15:52:54.132Z,26.50
2019-02-27T15:55:22.833Z,25.80
2019-02-27T15:57:53.504Z,26.30
2019-02-27T16:00:23.902Z,26.40
2019-02-27T16:02:52.946Z,26.20
2019-02-27T16:05:22.056Z,26.30
2019-02-27T16:07:51.471Z,26.40
2019-02-27T16:10:28.132Z,26.20
2019-02-27T16:12:59.580Z,26.30
2019-02-27T16:15:27.359Z,27.50
2019-02-27T16:17:56.269Z,27.20
2019-02-27T16:20:28.610Z,27.80
2019-02-27T16:22:57.037Z,27.30
2019-02-27T16:25:29.459Z,27.40
2019-02-27T16:27:57.950Z,27.90
2019-02-27T16:30:32.971Z,27.50
2019-02-27T16:33:01.974Z,28.60
2019-02-27T16:35:30.563Z,28.80
2019-02-27T16:37:58.994Z,28.70
2019-02-27T16:40:29.759Z,29.00
2019-02-27T16:42:58.564Z,29.30
2019-02-27T16:45:37.020Z,29.70
2019-02-27T16:48:26.269Z,30.00
2019-02-27T16:50:57.452Z,30.30
2019-02-27T16:53:24.902Z,30.30
2019-02-27T16:55:53.341Z,31.20
2019-02-27T16:58:21.789Z,31.00
2019-02-27T17:00:54.203Z,31.60
2019-02-27T17:03:20.390Z,31.40
2019-02-27T17:05:49.801Z,31.30
2019-02-27T17:08:18.684Z,31.90
2019-02-27T17:10:51.741Z,32.10
2019-02-27T17:13:17.692Z,32.20
2019-02-27T17:15:46.502Z,32.30
2019-02-27T17:18:15.175Z,33.30
2019-02-27T17:20:46.596Z,33.30
2019-02-27T17:23:14.120Z,33.70
2019-02-27T17:25:42.531Z,34.10
2019-02-27T17:28:10.985Z,34.00
2019-02-27T17:30:39.408Z,34.40
2019-02-27T17:33:08.240Z,34.40
2019-02-27T17:35:36.700Z,34.40
2019-02-27T17:38:05.208Z,34.70
2019-02-27T17:40:36.635Z,34.80
2019-02-27T17:43:04.338Z,35.20
2019-02-27T17:45:34.248Z,35.40
2019-02-27T17:48:02.786Z,35.80
2019-02-27T17:50:32.339Z,35.90
2019-02-27T17:53:00.866Z,36.10
2019-02-27T17:55:29.755Z,36.30
2019-02-27T17:57:59.275Z,36.70
2019-02-27T18:00:31.061Z,36.80
2019-02-27T18:03:00.010Z,37.10
2019-02-27T18:05:28.743Z,37.00
2019-02-27T18:07:57.233Z,37.10
2019-02-27T18:10:25.961Z,37.20
2019-02-27T18:12:54.634Z,37.70
2019-02-27T18:15:24.351Z,37.10
2019-02-27T18:17:53.477Z,37.90
2019-02-27T18:20:25.604Z,38.00
2019-02-27T18:22:52.783Z,38.10
2019-02-27T18:25:21.299Z,38.10
2019-02-27T18:27:49.712Z,38.40
2019-02-27T18:30:25.370Z,38.50
2019-02-27T18:32:53.807Z,39.40
2019-02-27T18:35:22.655Z,38.90
2019-02-27T18:37:54.382Z,39.20
2019-02-27T18:40:21.957Z,39.50
2019-02-27T18:42:55.367Z,39.70
2019-02-27T18:45:28.222Z,40.00
2019-02-27T18:47:58.726Z,40.10
2019-02-27T18:50:27.151Z,40.30
2019-02-27T18:52:55.929Z,40.50
2019-02-27T18:55:29.520Z,40.70
2019-02-27T18:57:54.644Z,40.90
2019-02-27T19:00:28.719Z,41.00
2019-02-27T19:03:05.495Z,41.00
2019-02-27T19:05:34.209Z,41.10
2019-02-27T19:08:03.092Z,41.60
2019-02-27T19:10:31.895Z,41.40
2019-02-27T19:13:01.128Z,41.30
2019-02-27T19:15:30.281Z,41.50
2019-02-27T19:17:59.104Z,41.60
2019-02-27T19:20:40.129Z,41.70
2019-02-27T19:23:08.923Z,41.90
2019-02-27T19:25:37.402Z,42.10
2019-02-27T19:28:06.292Z,42.40
2019-02-27T19:30:35.194Z,42.70
2019-02-27T19:33:04.305Z,42.90
2019-02-27T19:35:33.023Z,43.20
2019-02-27T19:38:01.712Z,43.10
2019-02-27T19:40:31.225Z,43.60
2019-02-27T19:43:04.977Z,43.40
2019-02-27T19:45:35.802Z,44.20
2019-02-27T19:48:04.424Z,43.40
2019-02-27T19:50:32.974Z,43.80
2019-02-27T19:53:05.196Z,44.00
2019-02-27T19:55:31.669Z,44.00
2019-02-27T19:58:00.573Z,44.20
2019-02-27T20:00:33.564Z,44.40
2019-02-27T20:03:01.714Z,44.80
2019-02-27T20:05:31.037Z,44.60
2019-02-27T20:07:59.746Z,44.50
2019-02-27T20:10:30.930Z,45.00
2019-02-27T20:12:59.268Z,44.50
2019-02-27T20:15:28.331Z,44.50
2019-02-27T20:17:57.732Z,44.50
2019-02-27T20:20:26.808Z,44.70
2019-02-27T20:22:55.572Z,44.90
2019-02-27T20:25:27.142Z,45.10
2019-02-27T20:27:57.838Z,45.30
2019-02-27T20:30:26.759Z,45.40
2019-02-27T20:32:55.883Z,45.60
2019-02-27T20:35:24.764Z,45.70
2019-02-27T20:37:53.173Z,45.80
2019-02-27T20:40:22.551Z,45.80
2019-02-27T20:42:54.855Z,45.90
2019-02-27T20:45:23.102Z,45.90
2019-02-27T20:47:57.813Z,46.00
2019-02-27T20:50:39.660Z,45.90
2019-02-27T20:53:10.590Z,46.00
2019-02-27T20:55:39.067Z,45.90
2019-02-27T20:58:07.946Z,45.70
2019-02-27T21:00:37.304Z,46.00
2019-02-27T21:03:06.261Z,45.40
2019-02-27T21:05:35.197Z,46.20
2019-02-27T21:08:04.043Z,45.60
2019-02-27T21:10:33.403Z,45.10
2019-02-27T21:13:02.340Z,45.10
2019-02-27T21:15:32.490Z,45.20
2019-02-27T21:18:01.393Z,44.60
2019-02-27T21:20:30.497Z,44.30
2019-02-27T21:23:00.243Z,44.00
2019-02-27T21:25:29.557Z,43.70
2019-02-27T21:27:57.982Z,43.60
2019-02-27T21:30:26.991Z,43.40
2019-02-27T21:32:55.753Z,43.30
2019-02-27T21:35:28.908Z,43.40
2019-02-27T21:37:55.071Z,43.50
2019-02-27T21:40:23.487Z,43.60
2019-02-27T21:42:52.390Z,43.50
2019-02-27T21:45:22.175Z,43.60
2019-02-27T21:47:51.924Z,43.50
2019-02-27T21:50:25.408Z,43.40
2019-02-27T21:52:54.711Z,43.50
2019-02-27T21:55:24.533Z,43.50
2019-02-27T21:57:53.513Z,43.50
2019-02-27T22:00:30.004Z,43.50
2019-02-27T22:03:03.634Z,43.40
2019-02-27T22:05:30.167Z,43.90
2019-02-27T22:07:59.181Z,44.10
2019-02-27T22:10:27.844Z,44.20
2019-02-27T22:12:56.291Z,44.40
2019-02-27T22:15:29.650Z,44.40
2019-02-27T22:17:58.867Z,44.50
2019-02-27T22:20:27.715Z,44.50
2019-02-27T22:22:56.556Z,44.50
2019-02-27T22:25:30.267Z,44.50
2019-02-27T22:27:55.738Z,44.40
2019-02-27T22:30:24.711Z,44.70
2019-02-27T22:32:53.699Z,44.90
2019-02-27T22:35:22.119Z,45.00
2019-02-27T22:37:52.401Z,45.10
2019-02-27T22:40:22.153Z,45.10
2019-02-27T22:42:50.812Z,45.20
2019-02-27T22:45:21.963Z,45.30
2019-02-27T22:47:53.801Z,45.30
2019-02-27T22:50:21.873Z,45.40
2019-02-27T22:52:54.162Z,45.60
2019-02-27T22:55:20.521Z,45.70
2019-02-27T22:57:49.045Z,45.80
2019-02-27T23:00:56.022Z,46.00
2019-02-27T23:03:30.466Z,46.30
2019-02-27T23:05:59.243Z,46.30
2019-02-27T23:08:27.768Z,46.90
2019-02-27T23:10:56.620Z,47.30
2019-02-27T23:13:25.114Z,47.60
2019-02-27T23:15:58.066Z,47.70
2019-02-27T23:18:23.906Z,47.80
2019-02-27T23:20:55.434Z,47.90
2019-02-27T23:23:22.975Z,48.40
2019-02-27T23:25:51.708Z,48.70
2019-02-27T23:28:20.243Z,48.90
2019-02-27T23:30:48.653Z,49.20
2019-02-27T23:33:17.435Z,49.40
2019-02-27T23:35:47.304Z,49.60
2019-02-27T23:38:16.402Z,49.80
2019-02-27T23:40:44.814Z,49.80
2019-02-27T23:43:13.222Z,49.90
2019-02-27T23:45:44.526Z,50.10
2019-02-27T23:48:12.126Z,50.20
2019-02-27T23:50:42.588Z,50.40
2019-02-27T23:53:11.432Z,50.60
2019-02-27T23:55:44.366Z,50.80
2019-02-27T23:58:10.358Z,51.00
